»·PEaware :: N475RS KSAN-KLAX

N475RS :: KSAN-KLAX

FLIGHT INFORMATION

Flight Status: Arrived
Operator: Privately registered:
United States
More flights under this callsign
Pilot: Aker J. (16898)
Aircraft: BOMBARDIER BD-100 CHALLENGER 300
(CL30)
More flights by this aircraft type
Origin: KSAN San Diego Intl-Lindbergh
United States
Destination: KLAX Los Angeles Intl
United States
More flights between these airports :: More routes between these airports
Route: +PEBLE6 SLI
File this flight plan on PilotEdge
Remarks: Sample flight plan
Altitude:
(Current/Filed)
11,000ft
Speed:
(Current/Filed)
250kts
Departed: 05-Dec-17 03:54 PM
Arrived: 05-Dec-17 04:23 PM
Distance/Time
Traveled:
94nm/0:28
Distance/Time
To Go:
Arrived

Flight Plot

Page will automatically refresh every two minutes.


Map Options




Map Legend


Flown Route
Filed Route
Departure Airport
Arrival Airport
Navaid (VOR, NDB)
Fix

Horizontal Profiles

Position Reports

Time Latitude Longitude Heading Altitude Ground
Speed
05-Dec-17 15:38 32.736522 -117.184974 354 20ft 0kts
05-Dec-17 15:39 32.736522 -117.184974 354 20ft 0kts
05-Dec-17 15:40 32.736522 -117.184974 354 20ft 0kts
05-Dec-17 15:41 32.736522 -117.184974 354 20ft 0kts
05-Dec-17 15:42 32.736522 -117.184974 354 20ft 0kts
05-Dec-17 15:43 32.732422 -117.176641 193 25ft 0kts
05-Dec-17 15:44 32.732422 -117.176641 193 25ft 0kts
05-Dec-17 15:45 32.732422 -117.176641 193 25ft 0kts
05-Dec-17 15:46 32.732422 -117.176641 193 25ft 0kts
05-Dec-17 15:47 32.732422 -117.176641 193 25ft 0kts
05-Dec-17 15:48 32.732422 -117.176641 193 25ft 0kts
05-Dec-17 15:49 32.732422 -117.176641 193 25ft 0kts
05-Dec-17 15:50 32.732422 -117.176641 193 25ft 0kts
05-Dec-17 15:51 32.732422 -117.176641 193 25ft 0kts
05-Dec-17 15:52 32.732422 -117.176641 193 25ft 0kts
05-Dec-17 15:53 32.732422 -117.176641 193 25ft 0kts
05-Dec-17 15:54 32.732059 -117.176658 172 24ft 2kts
05-Dec-17 15:55 32.731647 -117.175899 123 25ft 0kts
05-Dec-17 15:56 32.731509 -117.175650 120 25ft 2kts
05-Dec-17 15:57 32.730043 -117.175160 286 23ft 0kts
05-Dec-17 15:58 32.730043 -117.175160 286 23ft 0kts
05-Dec-17 15:59 32.732832 -117.186003 287 19ft 145kts
05-Dec-17 16:00 32.762411 -117.224490 316 1872ft 159kts
05-Dec-17 16:01 32.781973 -117.260014 303 3233ft 178kts
05-Dec-17 16:02 32.816411 -117.324682 304 6231ft 252kts
05-Dec-17 16:03 32.855057 -117.393047 307 10011ft 270kts
05-Dec-17 16:04 32.914725 -117.456291 332 10109ft 316kts
05-Dec-17 16:05 32.974194 -117.521620 311 10103ft 286kts
05-Dec-17 16:06 33.023572 -117.594961 311 10107ft 281kts
05-Dec-17 16:07 33.070335 -117.665379 311 10105ft 279kts
05-Dec-17 16:08 33.115019 -117.733431 311 10108ft 278kts
05-Dec-17 16:09 33.163344 -117.807587 311 10064ft 282kts
05-Dec-17 16:10 33.225085 -117.848431 344 10066ft 277kts
05-Dec-17 16:11 33.297381 -117.876625 346 10072ft 284kts
05-Dec-17 16:12 33.372985 -117.904834 346 10082ft 287kts
05-Dec-17 16:13 33.448141 -117.932401 347 10090ft 287kts
05-Dec-17 16:14 33.522490 -117.959513 347 10086ft 287kts
05-Dec-17 16:15 33.596543 -117.986523 347 8702ft 278kts
05-Dec-17 16:16 33.667461 -118.012438 348 7210ft 264kts
05-Dec-17 16:17 33.734224 -118.036854 348 5717ft 248kts
05-Dec-17 16:18 33.786856 -118.071193 297 5075ft 255kts
05-Dec-17 16:19 33.814536 -118.132708 357 4893ft 218kts
05-Dec-17 16:20 33.869290 -118.126077 11 3988ft 213kts
05-Dec-17 16:21 33.925331 -118.117700 11 3961ft 186kts
05-Dec-17 16:22 33.959889 -118.139307 295 3865ft 143kts
05-Dec-17 16:23 33.957882 -118.180978 264 3412ft 148kts
05-Dec-17 16:24 33.952219 -118.236640 265 2624ft 147kts
05-Dec-17 16:25 33.947531 -118.283309 265 1798ft 143kts
05-Dec-17 16:26 33.943326 -118.324891 264 1156ft 136kts
05-Dec-17 16:27 33.938408 -118.369745 267 461ft 129kts
05-Dec-17 16:28 33.935609 -118.400481 270 116ft 35kts
05-Dec-17 16:29 33.936278 -118.403826 284 119ft 1kts
05-Dec-17 16:30 33.936018 -118.406341 253 124ft 1kts
05-Dec-17 16:31 33.934109 -118.407167 180 123ft 5kts

Navigation Log

Ident Type
1. KSAN Airport
2. MELDY Fix
3. PEBLE Fix
4. SLI Navaid
5. KLAX Airport